KSLG

Smith Field Airport

Siloam Springs, Arkansas, USA
METAR KSLG 181456Z AUTO 20010KT 10SM CLR M05/M12 A3044 RMK AO2 SLP323 6//// T10501117 55005 FZRANO
Observed Flight Rules
Jan-18 @ 14:56 UTC (47 minutes ago) Visual Flight Rules
Wind Visibility Clouds
200° at 10 knots 10 miles
  • Clear skies
Temperatures Readings
Current -5°C / 23°F
Dewpoint -12°C / 10°F
Humidity 58%
Altimeter 30.44" Hg
Pressure 1032.3 hPa
Elevation 300
METAR KSLG 181456Z AUTO 20010KT 10SM CLR M05/M12 A3044 RMK AO2 SLP323 6//// T10501117 55005 FZRANO
Observed Flight Rules
Jan-18 @ 14:56 UTC
(47 minutes ago)
VFR
Wind Visibility
200° at 10 knots 10 miles
Clouds
  • Clear skies
Temperature Dewpoint
-5°C / 23°F -12°C / 10°F
Humidity Altimeter Pressure
58% 30.44" Hg 1032.3 hPa